• Join FlightAware (Why Join?)
  • Login
  • US Flag 
01:43PM EDT


 

Airport Tracker/Info


-or-


 

Live Flight TrackerFlight Track Log ✈ EJA396 ✈ 24-Apr-2013 ✈ KTEB - KBTV

Flight Track Log - Related Links

Times and Time Zones

All times are in EDT time to prevent confusion due to time zone crossing. See the EJA396 flight status page for this flight to view local times or setup timezone preferences in your user account.

Time Position Orientation Groundspeed Altitude Reporting Facility
EDT Latitude Longitude Course Direction KTS MPH feet Rate Location/Type
04:53PM 40.8333 -74.1000 252° West 198 228 1,600  Level New York TRACON
04:54PM 40.8167 -74.1667 252° West 188 216 2,400 1,860 Climbing New York TRACON
04:55PM 40.8333 -74.2500 285° West 252 290 5,400 1,800 Climbing New York TRACON
04:56PM 40.9000 -74.2500 360° North 314 361 6,100 360 Climbing New York TRACON
04:57PM 40.9833 -74.2167 17° North 317 365 6,100  Level New York TRACON
04:58PM 41.0667 -74.1667 24° Northeast 314 361 6,100  Level New York TRACON
04:59PM 41.1500 -74.1333 17° North 320 368 6,100 900 Level New York TRACON
05:00PM 41.2003 -73.9492 70° East 328 377 8,600 1,680 Climbing Boston Center
05:01PM 41.2183 -73.8475 77° East 320 368 10,800 3,300 Climbing Boston Center
05:02PM 41.1950 -73.7117 103° East 320 368 15,300 3,120 Climbing Boston Center
05:03PM 41.2400 -73.5911 64° Northeast 349 402 17,100 1,740 Climbing Boston Center
05:04PM 41.3244 -73.4878 43° Northeast 379 436 18,800 1,740 Climbing Boston Center
05:05PM 41.4128 -73.3950 38° Northeast 400 460 20,600 1,860 Climbing Boston Center
05:06PM 41.4989 -73.2883 43° Northeast 415 478 22,600 1,200 Climbing Boston Center
05:07PM 41.6061 -73.1869 35° Northeast 421 484 23,000 180 Climbing Boston Center
05:08PM 41.7231 -73.1383 17° North 424 488 23,000 300 Level Boston Center
05:09PM 41.8481 -73.1425 359° North 424 488 23,600 780 Climbing Boston Center
05:10PM 41.9667 -73.1633 353° North 424 488 24,600 660 Climbing Boston Center
05:11PM 42.0875 -73.1869 352° North 429 494 25,000 180 Climbing Boston Center
05:12PM 42.2122 -73.2081 353° North 434 499 25,000  Level Boston Center
05:13PM 42.3372 -73.2322 352° North 445 512 25,000  Level Boston Center
05:14PM 42.4497 -73.2447 355° North 451 519 25,000  Level Boston Center
05:15PM 42.5744 -73.2633 354° North 451 519 25,000  Level Boston Center
05:16PM 42.6869 -73.2931 349° North 451 519 25,000  Level Boston Center
05:17PM 42.8389 -73.3178 353° North 451 519 25,000  Level Boston Center
05:18PM 42.9617 -73.3394 353° North 451 519 25,000  Level Boston Center
05:19PM 43.0908 -73.3356 North 446 513 25,000  Level Boston Center
05:20PM 43.2139 -73.3233 North 446 513 25,000  Level Boston Center
05:21PM 43.3433 -73.3081 North 452 520 25,000  Level Boston Center
05:22PM 43.4683 -73.2897 North 452 520 25,000  Level Boston Center
05:23PM 43.5956 -73.2772 North 452 520 25,000 -480 Level Boston Center
05:24PM 43.7269 -73.2617 North 458 527 24,100 -1,680 Descending Boston Center
05:25PM 43.8458 -73.2489 North 458 527 21,700 -2,400 Descending Boston Center
05:26PM 43.9503 -73.2358 North 428 493 19,400 -2,400 Descending Boston Center
05:27PM 44.0586 -73.2231 North 397 457 16,900 -2,400 Descending Boston Center
05:28PM 44.1628 -73.2331 356° North 372 428 14,600 -2,400 Descending Boston Center
05:29PM 44.2564 -73.2517 352° North 344 396 12,200 -2,400 Descending Boston Center
05:30PM 44.3458 -73.2644 354° North 327 376 9,800 -2,400 Descending Boston Center
05:31PM 44.4144 -73.2917 344° North 286 329 7,500 -2,580 Descending Boston Center
05:32PM 44.4683 -73.3447 325° Northwest 247 284 4,700 -2,340 Descending Boston Center
05:33PM 44.5225 -73.3456 359° North 194 223 2,900 -1,260 Descending Boston Center
05:34PM 44.5394 -73.2847 69° East 150 173 2,200 -660 Descending Boston Center
05:35PM 44.5211 -73.2350 117° Southeast 125 144 1,600 -660 Descending Boston Center
05:36PM 44.4983 -73.1997 132° Southeast 118 136 900 -600 Descending Boston Center
05:37PM 44.4778 -73.1644 129° Southeast 118 136 400 -300 Descending Boston Center
05:38PM 44.4694 -73.1528 135° Southeast 88 101 400  Level Boston Center